Albury
Weather
Information

and Archive.
Albury Local Internet Skycam This service provided and funded by Albury Local Internet

Help keep our weatherstation running:

Lavington Weatherstation live data - Conditions of Use

Last updated on 24-Jun-2018 at 17:20:05
Temperature
  Currently  6.9 degrees C
  Apparent Temperature ("Wind Chill") is 4.9 degrees C
  Today has ranged from  2.9 at 04:44 to 14.2 at 15:40
  Yesterday ranged from  2.4 at 00:07 to 11.9 at 14:13
Wind
  Now:    4.3kmh, gusting to   5.0kmh from 127 degrees ( SE)
  Hour:   3.0kmh, gusting to   7.2kmh
Rainfall
   0.2mm Midnight to Midnight (ie, yesterday)
   0.2mm Since Midnight (ie, so far today)
   0.2mm 9am yesterday to 9am today
  47.6mm Total this month
Misc items
  Relative humidity is 85%
  Dewpoint is 4.6 deg C
  Estimated Cloudbase is 1000 feet
  Barometric Pressure is 1028.0 mbar
  Solar Insolation: 0 W/m^2
  UV Index: 0.0 (Low)
Top Solar flares in the last 24 hours

Last 24 hours Temperature Graph (click graph for history)
temperature

Last 24 hours Dynamic Wind display (click image for 4-hour image):
Wind Rose

Current Yarrawonga Weather Radar and Infrared Satellite Images from the BOM.

Hourly summaries in the tables below are cumulative and peak values
for the preceding hour, and instantaneous values at the hour.
So far today, 24-Jun-2018
Time   Barom.  Wind + Gust    Direction   RH   Rain    Temp.  Minimum    Maximum
01:00  1027.0   2.5   7.2kmh  111 (ESE)   96%  0.0mm    5.5   5.2@00:08  5.7@00:47
02:00  1027.0   1.8  10.1kmh  105 (ESE)   98%  0.0mm    4.9   4.3@01:30  5.5@01:00
03:00  1027.0   4.4  11.9kmh  109 (ESE)   98%  0.0mm    4.7   3.9@02:28  5.2@02:05
04:00  1027.0   2.4  11.9kmh  104 (ESE)   98%  0.2mm    3.8   3.8@03:46  4.7@03:00
05:00  1027.0   0.9   7.2kmh  106 (ESE)   98%  0.0mm    3.8   2.9@04:44  3.9@04:01
06:00  1028.0   2.5   9.4kmh  110 (ESE)   98%  0.0mm    3.5   3.5@05:51  4.2@05:22
07:00  1028.0   7.0  13.3kmh  139 ( SE)   98%  0.0mm    3.8   3.5@06:00  3.9@06:28
08:00  1028.0   7.9  16.9kmh  116 (ESE)   98%  0.0mm    4.0   3.8@07:00  4.0@07:39
09:00  1029.0   7.6  14.0kmh  129 ( SE)   98%  0.0mm    4.5   4.0@08:00  4.6@08:48
10:00  1029.0   7.8  16.2kmh  132 ( SE)   98%  0.0mm    5.6   4.4@09:01  5.5@09:51
11:00  1029.0   6.7  13.3kmh  116 (ESE)   93%  0.0mm    7.1   5.6@10:00  7.2@10:51
12:00  1029.0   6.1  11.9kmh  119 (ESE)   84%  0.0mm    8.6   7.0@11:06  8.6@11:59
13:00  1028.0   5.9  11.9kmh  164 (SSE)   71%  0.0mm   10.8   8.6@12:00 10.8@12:59
14:00  1027.0   6.2  12.6kmh  176 ( S )   56%  0.0mm   12.1  10.8@13:00 12.0@13:32
15:00  1027.0   4.7  12.6kmh  157 (SSE)   55%  0.0mm   13.6  11.7@14:22 13.6@14:43
16:00  1027.0   2.5   9.4kmh  126 ( SE)   53%  0.0mm   13.7  13.2@15:51 14.2@15:40
17:00  1028.0   1.4   7.9kmh  127 ( SE)   71%  0.0mm    8.1   8.2@16:59 13.7@16:00
17:20  1028.0   3.0   7.2kmh  127 ( SE)   85%  0.0mm    6.9   6.5@17:12  8.1@17:00


Summary for yesterday, 23-Jun-2018
Time   Barom.  Wind + Gust    Direction   RH   Rain    Temp.  Minimum    Maximum
01:00  1027.0   3.4   8.6kmh  132 ( SE)   98%  0.2mm    4.1   2.4@00:07  4.1@00:49
02:00  1027.0   2.0   7.9kmh  130 ( SE)   98%  0.0mm    3.7   3.5@01:27  4.1@01:00
03:00  1026.0   0.7   7.9kmh  123 (ESE)   98%  0.0mm    3.3   3.3@02:52  3.7@02:00
04:00  1026.0   0.2   6.5kmh  126 ( SE)   98%  0.0mm    3.0   2.8@03:31  3.4@03:07
05:00  1026.0   3.2   9.4kmh  130 ( SE)   98%  0.0mm    3.8   3.0@04:00  3.8@04:53
06:00  1026.0   4.5   8.6kmh  149 (SSE)   98%  0.0mm    3.3   3.3@05:56  3.8@05:00
07:00  1027.0   2.7  13.3kmh  109 (ESE)   98%  0.0mm    3.0   2.7@06:36  3.3@06:00
08:00  1028.0   4.3   9.4kmh  116 (ESE)   98%  0.0mm    3.2   3.0@07:00  3.2@07:33
09:00  1028.0   3.9  12.6kmh  105 (ESE)   98%  0.0mm    4.0   3.2@08:00  4.0@08:44
10:00  1028.0   3.1  10.1kmh  117 (ESE)   99%  0.0mm    5.7   3.6@09:08  5.7@09:59
11:00  1028.0   2.8  10.8kmh  147 (SSE)   98%  0.0mm    6.7   4.7@10:23  6.5@10:59
12:00  1027.0   2.4  11.2kmh  166 (SSE)   96%  0.0mm    6.0   6.1@11:58  7.3@11:32
13:00  1027.0   2.5   8.6kmh  301 (WNW)   90%  0.0mm   10.5   5.9@12:03 10.7@12:54
14:00  1026.0   4.4  11.9kmh  171 ( S )   79%  0.0mm   11.0  10.2@13:03 11.4@13:12
15:00  1026.0   6.0  10.8kmh  217 ( SW)   78%  0.0mm   10.1  10.0@14:49 11.9@14:13
16:00  1026.0   7.0  11.2kmh  233 ( SW)   79%  0.0mm   10.2  10.1@15:00 10.4@15:23
17:00  1027.0   5.4  10.8kmh  217 ( SW)   81%  0.0mm    9.7   9.7@16:54 10.2@16:00
18:00  1027.0   6.0  10.8kmh  213 (SSW)   87%  0.0mm    8.3   7.7@17:56  9.7@17:00
19:00  1027.0   3.8  10.8kmh  214 ( SW)   92%  0.0mm    6.7   6.7@18:53  8.4@18:02
20:00  1028.0   2.6   9.4kmh  219 ( SW)   85%  0.0mm    8.5   6.7@19:00  8.6@19:43
21:00  1028.0   3.9  10.8kmh  203 (SSW)   92%  0.0mm    7.1   5.9@20:49  8.5@20:00
22:00  1028.0   5.5  10.1kmh  233 ( SW)   92%  0.0mm    7.2   6.9@21:41  7.5@21:22
23:00  1028.0   2.5   8.6kmh  218 ( SW)   92%  0.0mm    5.7   5.8@22:59  7.3@22:05
00:00  1028.0   1.4   8.6kmh  111 (ESE)   95%  0.0mm    5.5   5.1@23:16  6.5@23:36